createdAt,value
2022-08-25T00:01:53.754Z,17.71
2022-08-25T00:04:21.401Z,17.76
2022-08-25T00:06:49.456Z,17.65
2022-08-25T00:09:18.690Z,17.70
2022-08-25T00:11:46.520Z,17.59
2022-08-25T00:14:17.840Z,17.56
2022-08-25T00:16:44.526Z,17.57
2022-08-25T00:19:15.415Z,17.53
2022-08-25T00:21:42.760Z,17.47
2022-08-25T00:24:11.176Z,17.44
2022-08-25T00:26:43.615Z,17.43
2022-08-25T00:29:11.451Z,17.41
2022-08-25T00:31:39.236Z,17.42
2022-08-25T00:34:12.925Z,17.35
2022-08-25T00:36:39.638Z,17.33
2022-08-25T00:39:08.463Z,17.36
2022-08-25T00:41:36.414Z,17.31
2022-08-25T00:44:06.508Z,17.28
2022-08-25T00:46:44.286Z,17.28
2022-08-25T00:49:25.124Z,17.22
2022-08-25T00:52:00.125Z,17.21
2022-08-25T00:54:35.283Z,17.20
2022-08-25T00:57:04.598Z,17.19
2022-08-25T00:59:31.398Z,17.25
2022-08-25T01:05:14.894Z,17.21
2022-08-25T01:07:43.602Z,17.17
2022-08-25T01:10:13.502Z,17.15
2022-08-25T01:12:41.270Z,17.11
2022-08-25T01:15:10.634Z,17.10
2022-08-25T01:17:46.050Z,17.02
2022-08-25T01:20:13.968Z,17.02
2022-08-25T01:22:40.655Z,16.99
2022-08-25T01:25:39.155Z,16.97
2022-08-25T01:28:06.286Z,16.93
2022-08-25T01:30:32.910Z,16.87
2022-08-25T01:32:59.446Z,16.81
2022-08-25T01:35:25.893Z,16.80
2022-08-25T01:37:52.411Z,16.75
2022-08-25T01:40:19.013Z,16.69
2022-08-25T01:43:02.450Z,16.71
2022-08-25T01:45:29.666Z,16.67
2022-08-25T01:47:56.835Z,16.67
2022-08-25T01:50:23.637Z,16.70
2022-08-25T01:53:00.723Z,16.63
2022-08-25T01:55:27.207Z,16.64
2022-08-25T01:57:53.692Z,16.58
2022-08-25T02:00:21.423Z,16.62
2022-08-25T02:02:52.233Z,16.58
2022-08-25T02:05:23.589Z,16.55
2022-08-25T02:07:50.287Z,16.56
2022-08-25T02:10:16.814Z,16.54
2022-08-25T02:12:43.317Z,16.52
2022-08-25T02:15:10.280Z,16.49
2022-08-25T02:17:37.167Z,16.44
2022-08-25T02:20:08.719Z,16.42
2022-08-25T02:22:35.274Z,16.37
2022-08-25T02:25:01.783Z,16.38
2022-08-25T02:27:28.412Z,16.32
2022-08-25T02:29:54.853Z,16.35
2022-08-25T02:32:21.336Z,16.28
2022-08-25T02:34:48.247Z,16.27
2022-08-25T02:37:14.742Z,16.31
2022-08-25T02:39:41.259Z,16.27
2022-08-25T02:42:07.848Z,16.27
2022-08-25T02:44:34.299Z,16.25
2022-08-25T02:47:00.744Z,16.24
2022-08-25T02:49:27.883Z,16.20
2022-08-25T02:51:54.694Z,16.21
2022-08-25T02:54:23.210Z,16.14
2022-08-25T02:56:49.894Z,16.14
2022-08-25T02:59:18.057Z,16.10
2022-08-25T03:01:44.663Z,16.08
2022-08-25T03:04:11.875Z,16.06
2022-08-25T03:06:38.637Z,16.04
2022-08-25T03:09:05.501Z,16.02
2022-08-25T03:11:32.619Z,16.12
2022-08-25T03:13:59.075Z,16.04
2022-08-25T03:16:28.161Z,16.03
2022-08-25T03:18:55.183Z,16.01
2022-08-25T03:21:22.487Z,15.98
2022-08-25T03:23:48.990Z,15.96
2022-08-25T03:26:34.140Z,16.00
2022-08-25T03:29:05.126Z,16.04
2022-08-25T03:31:33.459Z,15.98
2022-08-25T03:34:00.452Z,15.89
2022-08-25T03:36:27.699Z,15.85
2022-08-25T03:38:54.811Z,15.80
2022-08-25T03:41:29.109Z,15.82
2022-08-25T03:43:56.565Z,15.77
2022-08-25T03:46:26.576Z,15.80
2022-08-25T03:48:53.900Z,15.75
2022-08-25T03:51:23.078Z,15.72
2022-08-25T03:53:50.059Z,15.69
2022-08-25T03:56:17.115Z,15.67
2022-08-25T03:58:43.791Z,15.64
2022-08-25T04:01:10.463Z,15.63
2022-08-25T04:03:37.073Z,15.63
2022-08-25T04:06:05.990Z,15.65
2022-08-25T04:08:32.783Z,15.60
2022-08-25T04:10:59.815Z,15.66
2022-08-25T04:13:26.480Z,15.70
2022-08-25T04:15:52.948Z,15.70
2022-08-25T04:18:19.514Z,15.72
2022-08-25T04:20:47.551Z,15.68
2022-08-25T04:23:14.132Z,15.71
2022-08-25T04:25:44.198Z,15.73
2022-08-25T04:28:12.780Z,15.69
2022-08-25T04:30:42.731Z,15.58
2022-08-25T04:33:09.219Z,15.69
2022-08-25T04:35:35.822Z,15.62
2022-08-25T04:38:02.811Z,15.60
2022-08-25T04:40:29.497Z,15.64
2022-08-25T04:42:56.112Z,15.63
2022-08-25T04:45:22.654Z,15.63
2022-08-25T04:47:53.013Z,15.64
2022-08-25T04:50:21.379Z,15.65
2022-08-25T04:52:47.988Z,15.67
2022-08-25T04:55:14.496Z,15.69
2022-08-25T04:57:41.006Z,15.70
2022-08-25T05:00:08.227Z,15.76
2022-08-25T05:02:34.769Z,15.82
2022-08-25T05:05:03.513Z,15.83
2022-08-25T05:07:30.216Z,15.92
2022-08-25T05:09:56.667Z,15.97
2022-08-25T05:12:23.152Z,15.97
2022-08-25T05:14:53.510Z,16.06
2022-08-25T05:17:20.170Z,16.11
2022-08-25T05:19:49.035Z,16.17
2022-08-25T05:22:15.498Z,16.25
2022-08-25T05:24:42.092Z,16.32
2022-08-25T05:27:08.536Z,16.44
2022-08-25T05:29:35.014Z,16.50
2022-08-25T05:32:01.502Z,16.62
2022-08-25T05:34:28.121Z,16.70
2022-08-25T05:36:54.648Z,16.89
2022-08-25T05:39:21.203Z,16.96
2022-08-25T05:41:47.662Z,17.12
2022-08-25T05:44:16.948Z,17.12
2022-08-25T05:46:47.279Z,17.32
2022-08-25T05:49:13.737Z,17.45
2022-08-25T05:51:40.278Z,17.55
2022-08-25T05:54:06.763Z,17.65
2022-08-25T05:56:33.250Z,17.77
2022-08-25T05:58:59.783Z,17.84
2022-08-25T06:01:47.614Z,17.92
2022-08-25T06:04:17.694Z,18.07
2022-08-25T06:06:44.146Z,18.19
2022-08-25T06:09:10.923Z,18.20
2022-08-25T06:11:39.971Z,18.18
2022-08-25T06:14:08.767Z,18.45
2022-08-25T06:16:35.450Z,18.58
2022-08-25T06:19:01.947Z,18.68
2022-08-25T06:21:29.070Z,18.83
2022-08-25T06:23:55.830Z,18.95
2022-08-25T06:26:23.452Z,19.08
2022-08-25T06:28:50.973Z,19.28
2022-08-25T06:31:19.001Z,19.43
2022-08-25T06:33:46.180Z,19.63
2022-08-25T06:36:12.824Z,19.70
2022-08-25T06:38:39.350Z,19.90
2022-08-25T06:41:07.583Z,20.14
2022-08-25T06:43:35.067Z,20.12
2022-08-25T06:46:17.137Z,20.37
2022-08-25T06:48:43.923Z,20.54
2022-08-25T06:51:14.439Z,20.74
2022-08-25T06:53:41.635Z,20.90
2022-08-25T06:56:08.570Z,21.09
2022-08-25T06:58:35.833Z,21.39
2022-08-25T07:01:14.826Z,21.37
2022-08-25T07:03:43.081Z,21.72
2022-08-25T07:06:09.851Z,21.98
2022-08-25T07:08:37.203Z,21.93
2022-08-25T07:11:08.051Z,22.18
2022-08-25T07:13:43.050Z,22.30
2022-08-25T07:16:11.363Z,22.55
2022-08-25T07:18:38.410Z,22.69
2022-08-25T07:21:05.086Z,22.93
2022-08-25T07:23:35.595Z,22.81
2022-08-25T07:29:02.123Z,22.76
2022-08-25T07:31:30.177Z,22.93
2022-08-25T07:34:17.907Z,22.61
2022-08-25T07:36:44.556Z,22.80
2022-08-25T07:39:11.567Z,22.76
2022-08-25T07:41:40.802Z,22.93
2022-08-25T07:44:10.125Z,22.94
2022-08-25T07:46:37.334Z,23.16
2022-08-25T07:49:04.099Z,23.25
2022-08-25T07:51:39.947Z,23.44
2022-08-25T07:54:33.790Z,23.59
2022-08-25T07:57:01.396Z,23.87
2022-08-25T07:59:28.008Z,23.95
2022-08-25T08:01:54.554Z,23.80
2022-08-25T08:04:21.107Z,23.76
2022-08-25T08:06:47.635Z,23.95
2022-08-25T08:09:14.322Z,24.27
2022-08-25T08:11:53.809Z,24.34
2022-08-25T08:14:20.808Z,24.37
2022-08-25T08:16:47.294Z,24.45
2022-08-25T08:19:13.826Z,24.57
2022-08-25T08:21:40.759Z,24.45
2022-08-25T08:24:14.907Z,24.46
2022-08-25T08:26:59.118Z,24.53
2022-08-25T08:29:26.881Z,24.45
2022-08-25T08:31:53.415Z,24.56
2022-08-25T08:34:25.117Z,24.62
2022-08-25T08:36:52.407Z,24.84
2022-08-25T08:39:18.862Z,24.86
2022-08-25T08:42:11.377Z,25.03
2022-08-25T08:44:44.767Z,24.69
2022-08-25T08:47:27.875Z,25.21
2022-08-25T08:50:28.118Z,25.24
2022-08-25T08:53:16.603Z,25.27
2022-08-25T08:55:51.889Z,25.35
2022-08-25T08:58:33.873Z,25.42
2022-08-25T09:01:01.920Z,25.35
2022-08-25T09:03:32.022Z,25.52
2022-08-25T09:06:02.748Z,25.77
2022-08-25T09:08:30.707Z,25.44
2022-08-25T09:11:10.184Z,25.67
2022-08-25T09:13:57.988Z,25.58
2022-08-25T09:16:55.626Z,25.88
2022-08-25T09:19:37.514Z,25.99
2022-08-25T09:22:33.382Z,26.46
2022-08-25T09:25:53.124Z,26.38
2022-08-25T09:28:40.706Z,26.36
2022-08-25T09:31:25.339Z,26.37
2022-08-25T09:33:57.164Z,26.29
2022-08-25T09:36:24.700Z,26.44
2022-08-25T09:38:51.762Z,26.73
2022-08-25T09:41:40.163Z,26.77
2022-08-25T09:44:33.030Z,26.99
2022-08-25T09:47:34.835Z,27.27
2022-08-25T09:50:05.524Z,27.06
2022-08-25T09:52:37.431Z,26.86
2022-08-25T09:55:15.965Z,26.55
2022-08-25T09:57:56.927Z,26.45
2022-08-25T10:00:34.924Z,26.71
2022-08-25T10:03:24.746Z,26.90
2022-08-25T10:06:12.983Z,26.80
2022-08-25T10:08:56.053Z,26.82
2022-08-25T10:11:42.864Z,27.39
2022-08-25T10:21:13.582Z,27.16
2022-08-25T10:24:06.070Z,27.28
2022-08-25T10:27:02.990Z,26.84
2022-08-25T10:30:04.651Z,27.30
2022-08-25T10:33:05.745Z,27.26
2022-08-25T10:36:02.917Z,26.88
2022-08-25T10:38:36.349Z,27.31
2022-08-25T10:41:30.036Z,26.95
2022-08-25T12:21:08.606Z,27.55
2022-08-25T12:23:44.826Z,27.31
2022-08-25T12:26:34.005Z,27.78
2022-08-25T12:29:04.129Z,28.09
2022-08-25T12:32:29.580Z,27.89
2022-08-25T12:35:02.654Z,27.67
2022-08-25T12:37:33.218Z,27.78
2022-08-25T12:40:05.173Z,28.06
2022-08-25T13:55:58.840Z,29.39
2022-08-25T13:58:32.478Z,29.06
2022-08-25T14:01:32.264Z,29.28
2022-08-25T14:04:24.636Z,29.29
2022-08-25T14:07:20.876Z,28.96
2022-08-25T14:10:01.566Z,29.14
2022-08-25T14:12:45.510Z,29.16
2022-08-25T14:15:29.544Z,29.28
2022-08-25T14:18:28.217Z,29.20
2022-08-25T14:20:57.485Z,29.26
2022-08-25T14:23:27.478Z,28.97
2022-08-25T14:25:56.683Z,29.24
2022-08-25T14:28:26.397Z,29.25
2022-08-25T14:31:30.041Z,29.05
2022-08-25T14:34:02.456Z,29.04
2022-08-25T14:36:30.476Z,29.16
2022-08-25T14:38:57.502Z,28.80
2022-08-25T14:41:26.543Z,28.96
2022-08-25T14:43:53.634Z,29.05
2022-08-25T14:46:24.649Z,29.09
2022-08-25T14:49:05.049Z,29.06
2022-08-25T14:51:33.223Z,29.15
2022-08-25T14:54:05.394Z,29.29
2022-08-25T14:56:33.355Z,29.06
2022-08-25T14:59:00.816Z,28.90
2022-08-25T15:01:30.047Z,28.90
2022-08-25T15:04:08.056Z,29.09
2022-08-25T15:06:36.960Z,29.28
2022-08-25T15:09:10.885Z,29.08
2022-08-25T15:11:46.986Z,28.97
2022-08-25T15:14:28.781Z,29.05
2022-08-25T15:16:59.803Z,28.84
2022-08-25T15:19:29.503Z,28.87
2022-08-25T15:21:57.935Z,28.44
2022-08-25T15:24:27.439Z,28.41
2022-08-25T15:26:58.209Z,28.42
2022-08-25T15:29:27.385Z,28.46
2022-08-25T15:31:54.005Z,28.55
2022-08-25T15:34:20.607Z,28.43
2022-08-25T15:36:48.092Z,28.40
2022-08-25T15:39:15.187Z,28.36
2022-08-25T15:41:46.032Z,28.50
2022-08-25T15:44:16.112Z,28.65
2022-08-25T15:46:47.191Z,28.30
2022-08-25T15:49:20.750Z,28.02
2022-08-25T15:51:54.541Z,27.93
2022-08-25T15:54:22.536Z,28.08
2022-08-25T15:56:49.150Z,28.15
2022-08-25T15:59:16.021Z,28.21
2022-08-25T16:01:44.308Z,28.16
2022-08-25T16:04:15.581Z,27.94
2022-08-25T16:06:44.489Z,27.88
2022-08-25T16:09:11.824Z,27.91
2022-08-25T16:11:38.963Z,27.78
2022-08-25T16:14:06.209Z,27.71
2022-08-25T16:16:33.483Z,27.75
2022-08-25T16:19:01.527Z,27.59
2022-08-25T16:21:33.462Z,27.52
2022-08-25T16:24:07.526Z,27.31
2022-08-25T16:26:48.567Z,27.41
2022-08-25T16:29:15.860Z,27.35
2022-08-25T16:31:43.397Z,27.31
2022-08-25T16:34:10.099Z,27.17
2022-08-25T16:36:38.992Z,27.06
2022-08-25T16:39:09.787Z,27.18
2022-08-25T16:41:37.355Z,27.16
2022-08-25T16:44:11.270Z,27.03
2022-08-25T16:46:38.535Z,26.96
2022-08-25T16:49:07.884Z,26.95
2022-08-25T16:51:34.328Z,26.89
2022-08-25T16:54:22.143Z,26.90
2022-08-25T16:56:49.462Z,26.78
2022-08-25T16:59:22.159Z,26.76
2022-08-25T17:01:51.121Z,26.78
2022-08-25T17:04:18.028Z,26.70
2022-08-25T17:06:51.895Z,26.71
2022-08-25T17:09:23.929Z,26.64
2022-08-25T17:11:54.198Z,26.60
2022-08-25T17:14:21.024Z,26.55
2022-08-25T17:16:48.603Z,26.49
2022-08-25T17:19:17.458Z,26.42
2022-08-25T17:21:49.958Z,26.31
2022-08-25T17:24:17.157Z,26.28
2022-08-25T17:27:03.975Z,26.27
2022-08-25T17:29:30.495Z,26.14
2022-08-25T17:31:57.584Z,26.11
2022-08-25T17:34:24.439Z,26.07
2022-08-25T17:36:51.639Z,26.00
2022-08-25T17:39:19.680Z,25.87
2022-08-25T17:41:49.441Z,25.79
2022-08-25T17:44:16.528Z,25.65
2022-08-25T17:46:47.444Z,25.59
2022-08-25T17:49:15.019Z,25.48
2022-08-25T17:51:42.210Z,25.46
2022-08-25T17:54:08.807Z,25.38
2022-08-25T17:56:35.248Z,25.25
2022-08-25T17:59:02.341Z,25.13
2022-08-25T18:01:31.418Z,25.07
2022-08-25T18:03:59.511Z,24.93
2022-08-25T18:06:31.507Z,24.81
2022-08-25T18:09:03.110Z,24.70
2022-08-25T18:11:33.315Z,24.64
2022-08-25T18:14:03.522Z,24.59
2022-08-25T18:16:32.223Z,24.48
2022-08-25T18:19:00.679Z,24.42
2022-08-25T18:21:30.607Z,24.32
2022-08-25T18:23:57.523Z,24.29
2022-08-25T18:26:25.440Z,24.21
2022-08-25T18:28:52.146Z,24.15
2022-08-25T18:31:19.939Z,24.08
2022-08-25T18:33:46.854Z,23.99
2022-08-25T18:36:13.848Z,23.92
2022-08-25T18:38:59.975Z,23.86
2022-08-25T18:41:33.304Z,23.79
2022-08-25T18:43:59.823Z,23.76
2022-08-25T18:46:26.429Z,23.67
2022-08-25T18:48:54.878Z,23.56
2022-08-25T18:51:22.987Z,23.48
2022-08-25T18:54:00.808Z,23.48
2022-08-25T18:56:27.581Z,23.43
2022-08-25T18:59:04.289Z,23.42
2022-08-25T19:01:31.348Z,23.36
2022-08-25T19:03:57.997Z,23.36
2022-08-25T19:06:24.521Z,23.32
2022-08-25T19:08:51.129Z,23.22
2022-08-25T19:11:22.043Z,23.19
2022-08-25T19:13:49.071Z,23.15
2022-08-25T19:16:20.381Z,23.13
2022-08-25T19:18:48.686Z,23.12
2022-08-25T19:21:15.359Z,23.08
2022-08-25T19:23:45.134Z,23.09
2022-08-25T19:26:17.020Z,22.99
2022-08-25T19:28:45.911Z,22.98
2022-08-25T19:31:18.375Z,22.87
2022-08-25T19:33:46.140Z,22.87
2022-08-25T19:36:13.103Z,22.82
2022-08-25T19:38:39.976Z,22.82
2022-08-25T19:41:10.413Z,22.73
2022-08-25T19:43:55.242Z,22.74
2022-08-25T19:46:24.420Z,22.73
2022-08-25T19:48:50.974Z,22.66
2022-08-25T19:51:19.307Z,22.61
2022-08-25T19:53:52.313Z,22.53
2022-08-25T19:56:21.326Z,22.45
2022-08-25T19:58:47.842Z,22.38
2022-08-25T20:01:18.156Z,22.32
2022-08-25T20:03:45.118Z,22.32
2022-08-25T20:06:12.064Z,22.21
2022-08-25T20:08:42.501Z,22.17
2022-08-25T20:11:08.947Z,22.12
2022-08-25T20:13:35.462Z,22.00
2022-08-25T20:16:02.449Z,21.98
2022-08-25T20:18:28.938Z,21.99
2022-08-25T20:20:56.039Z,21.85
2022-08-25T20:23:41.903Z,21.88
2022-08-25T20:26:09.202Z,21.76
2022-08-25T20:28:35.755Z,21.79
2022-08-25T20:31:02.249Z,21.73
2022-08-25T20:33:28.998Z,21.68
2022-08-25T20:35:55.879Z,21.63
2022-08-25T20:38:22.667Z,21.68
2022-08-25T20:40:49.443Z,21.54
2022-08-25T20:43:15.988Z,21.62
2022-08-25T20:45:42.464Z,21.55
2022-08-25T20:48:09.516Z,21.50
2022-08-25T20:50:38.684Z,21.47
2022-08-25T20:53:10.100Z,21.47
2022-08-25T20:55:42.468Z,21.41
2022-08-25T20:58:10.140Z,21.36
2022-08-25T21:00:36.607Z,21.32
2022-08-25T21:03:03.118Z,21.30
2022-08-25T21:05:29.575Z,21.28
2022-08-25T21:07:56.078Z,21.20
2022-08-25T21:10:23.473Z,21.16
2022-08-25T21:12:53.360Z,21.18
2022-08-25T21:15:20.647Z,21.11
2022-08-25T21:17:53.133Z,21.13
2022-08-25T21:20:23.666Z,21.08
2022-08-25T21:22:50.820Z,21.07
2022-08-25T21:25:18.811Z,21.14
2022-08-25T21:27:45.616Z,21.10
2022-08-25T21:30:14.815Z,21.05
2022-08-25T21:32:53.047Z,21.05
2022-08-25T21:35:20.819Z,21.04
2022-08-25T21:37:49.270Z,20.92
2022-08-25T21:40:20.566Z,20.92
2022-08-25T21:42:47.119Z,20.93
2022-08-25T21:45:13.862Z,20.88
2022-08-25T21:47:42.546Z,20.84
2022-08-25T21:50:11.427Z,20.79
2022-08-25T21:52:38.004Z,20.73
2022-08-25T21:55:08.036Z,20.73
2022-08-25T21:57:42.923Z,20.69
2022-08-25T22:00:14.963Z,20.68
2022-08-25T22:02:43.881Z,20.63
2022-08-25T22:05:11.546Z,20.59
2022-08-25T22:07:41.738Z,20.58
2022-08-25T22:10:16.617Z,20.59
2022-08-25T22:12:45.662Z,20.60
2022-08-25T22:15:13.899Z,20.51
2022-08-25T22:17:40.607Z,20.50
2022-08-25T22:20:08.450Z,20.40
2022-08-25T22:22:35.690Z,20.43
2022-08-25T22:25:02.532Z,20.34
2022-08-25T22:27:30.363Z,20.31
2022-08-25T22:29:57.291Z,20.31
2022-08-25T22:32:23.855Z,20.33
2022-08-25T22:34:50.430Z,20.37
2022-08-25T22:37:17.923Z,20.27
2022-08-25T22:39:45.495Z,20.14
2022-08-25T22:42:12.533Z,20.24
2022-08-25T22:44:39.882Z,20.16
2022-08-25T22:47:07.502Z,20.21
2022-08-25T22:49:35.477Z,20.11
2022-08-25T22:52:02.155Z,20.07
2022-08-25T22:54:28.623Z,20.07
2022-08-25T22:56:56.419Z,20.03
2022-08-25T22:59:22.911Z,20.00
2022-08-25T23:01:52.379Z,19.96
2022-08-25T23:04:19.227Z,19.96
2022-08-25T23:06:46.191Z,19.95
2022-08-25T23:09:13.982Z,19.95
2022-08-25T23:11:40.722Z,19.93
2022-08-25T23:14:10.991Z,19.92
2022-08-25T23:16:39.843Z,19.91
2022-08-25T23:19:09.789Z,19.88
2022-08-25T23:21:56.861Z,19.93
2022-08-25T23:24:29.314Z,19.90
2022-08-25T23:26:57.942Z,19.96
2022-08-25T23:29:24.678Z,20.00
2022-08-25T23:31:51.949Z,19.84
2022-08-25T23:34:20.262Z,19.85
2022-08-25T23:36:46.688Z,19.75
2022-08-25T23:39:13.208Z,19.64
2022-08-25T23:41:40.110Z,19.69
2022-08-25T23:44:06.767Z,19.70
2022-08-25T23:46:35.879Z,19.67
2022-08-25T23:49:04.600Z,19.57
2022-08-25T23:51:33.808Z,19.66
2022-08-25T23:54:05.954Z,19.69
2022-08-25T23:56:36.074Z,19.59
2022-08-25T23:59:04.188Z,19.55
